Hundvaag 1 weather for Sep 2007
Month no. 243
Obs.
Da.
Temp. Dew Point Precip. Wind
Speed
Wind gusts Cloud cover Press. Humidity Wind dir. Sunny OPT
01.09.2007 9,8   0,9 0,0   0 1011,5 85,0 292,5   62,5 %
02.09.2007 11,8   19,0 2,0   0 1002,4 82,0 270,0 1 50,0 %
03.09.2007 9,1   3,5 10,0   4 1005,4 73,0 315,0 1 65,0 %
04.09.2007 7,8   3,0 4,0   10 1018,6 78,0 45,0 1 82,5 %
05.09.2007 8,9   3,0 1,0   0 1020,3 97,0 157,5   60,0 %
06.09.2007 9,8   4,5 0,0   4 1024,7 91,0 22,5 1 70,0 %
07.09.2007 12,8   0,5 2,0   4 1024,7 98,0 315,0 1 77,5 %
08.09.2007 12,5   9,0 5,0   0 1017,6 99,0 247,5   57,5 %
09.09.2007 10,4   0,0 2,0   4 1017,9 86,0 45,0 1 75,0 %
10.09.2007 9,9   11,5 4,0   2 1000,7 96,0 22,5 1 57,5 %
11.09.2007 10,4   0,0 3,0   4 1016,3 90,0 45,0 1 75,0 %
12.09.2007 10,3   0,8 3,0   0 1018,3 89,0 270,0   65,0 %
13.09.2007 5,9   0,0 0,0   0 1024,0 93,0 45,0   60,0 %
14.09.2007 11,6   15,5 8,0   1 1002,0 88,0 315,0   50,0 %
15.09.2007 6,7   6,0 18,0   1 1014,9 76,0 22,5   47,5 %
16.09.2007 12,9   10,5 13,0   0 1000,0 90,0 0,0 1 52,5 %
17.09.2007 9,6   17,5 5,0   1 999,3 89,0 0,0 1 50,0 %
18.09.2007 5,9   0,2 6,0   8 1009,8 80,0 337,5 1 77,5 %
19.09.2007 7,8   0,6 21,0   0 1006,4 80,0 180,0 1 50,0 %
20.09.2007 9,2   13,2 12,0   1 1004,7 86,0 157,5 1 47,5 %
21.09.2007 8,4   5,8 0,0   1 1008,1 85,0 225,0   62,5 %
22.09.2007 10,3   3,3 4,0   1 1011,8 85,0 202,5 1 62,5 %
23.09.2007 12,6   0,1 13,0   1 1013,9 86,0 180,0   62,5 %
24.09.2007 14,3   20,0 5,0   0 1004,7 89,0 157,5   50,0 %
25.09.2007 10,4   58,7 5,0   2 1002,0 88,0 247,5   42,5 %
26.09.2007 8,1   2,6 6,0   8 1010,2 86,0 45,0 1 80,0 %
27.09.2007 8,1   0,0 6,0   10 1024,0 85,0 22,5 1 85,0 %
28.09.2007 7,2   0,0 4,0   10 1026,7 78,0 45,0 1 82,5 %
29.09.2007 8,4   0,0 9,0   3 1017,6 64,0 90,0   65,0 %
30.09.2007 11,1   7,0 2,0   2 1011,2 84,0 315,0 1 65,0 %
                       
Avrg/Sum 9,7   216,7 5,8   2,7 1012,3 85,9 154,5 18 63,0 %